sensor_id;sensor_type;location;lat;lon;timestamp;P1;durP1;ratioP1;P2;durP2;ratioP2
24547;SDS011;12713;51.624;4.924;2023-02-16T00:01:02;79.07;;;48.03;;
24547;SDS011;12713;51.624;4.924;2023-02-16T00:03:38;82.07;;;46.13;;
24547;SDS011;12713;51.624;4.924;2023-02-16T00:06:04;78.18;;;47.60;;
24547;SDS011;12713;51.624;4.924;2023-02-16T00:08:30;85.50;;;48.53;;
24547;SDS011;12713;51.624;4.924;2023-02-16T00:10:56;78.15;;;46.80;;
24547;SDS011;12713;51.624;4.924;2023-02-16T00:13:41;76.68;;;47.30;;
24547;SDS011;12713;51.624;4.924;2023-02-16T00:16:21;77.40;;;47.72;;
24547;SDS011;12713;51.624;4.924;2023-02-16T00:18:47;77.30;;;47.40;;
24547;SDS011;12713;51.624;4.924;2023-02-16T00:21:14;77.00;;;45.53;;
24547;SDS011;12713;51.624;4.924;2023-02-16T00:23:40;78.07;;;47.65;;
24547;SDS011;12713;51.624;4.924;2023-02-16T00:26:22;75.03;;;44.50;;
24547;SDS011;12713;51.624;4.924;2023-02-16T00:28:50;77.07;;;47.70;;
24547;SDS011;12713;51.624;4.924;2023-02-16T00:31:17;82.80;;;47.25;;
24547;SDS011;12713;51.624;4.924;2023-02-16T00:33:44;76.07;;;46.10;;
24547;SDS011;12713;51.624;4.924;2023-02-16T00:36:10;78.60;;;47.70;;
24547;SDS011;12713;51.624;4.924;2023-02-16T00:38:36;86.93;;;46.40;;
24547;SDS011;12713;51.624;4.924;2023-02-16T00:41:02;74.38;;;45.63;;
24547;SDS011;12713;51.624;4.924;2023-02-16T00:43:28;78.03;;;46.08;;
24547;SDS011;12713;51.624;4.924;2023-02-16T00:45:55;79.40;;;46.85;;
24547;SDS011;12713;51.624;4.924;2023-02-16T00:48:22;77.18;;;45.35;;
24547;SDS011;12713;51.624;4.924;2023-02-16T00:50:48;83.00;;;47.20;;
24547;SDS011;12713;51.624;4.924;2023-02-16T00:53:14;80.85;;;47.70;;
24547;SDS011;12713;51.624;4.924;2023-02-16T00:55:41;77.55;;;47.00;;
24547;SDS011;12713;51.624;4.924;2023-02-16T01:00:34;75.13;;;46.90;;
24547;SDS011;12713;51.624;4.924;2023-02-16T01:03:02;78.13;;;46.35;;
24547;SDS011;12713;51.624;4.924;2023-02-16T01:05:29;81.93;;;48.15;;
24547;SDS011;12713;51.624;4.924;2023-02-16T01:07:55;79.03;;;47.65;;
24547;SDS011;12713;51.624;4.924;2023-02-16T01:10:40;80.05;;;47.40;;
24547;SDS011;12713;51.624;4.924;2023-02-16T01:13:25;83.20;;;48.30;;
24547;SDS011;12713;51.624;4.924;2023-02-16T01:15:52;81.28;;;46.13;;
24547;SDS011;12713;51.624;4.924;2023-02-16T01:18:18;81.32;;;48.20;;
24547;SDS011;12713;51.624;4.924;2023-02-16T01:20:45;79.50;;;47.78;;
24547;SDS011;12713;51.624;4.924;2023-02-16T01:23:11;79.60;;;49.67;;
24547;SDS011;12713;51.624;4.924;2023-02-16T01:25:37;82.60;;;49.55;;
24547;SDS011;12713;51.624;4.924;2023-02-16T01:28:23;84.28;;;49.80;;
24547;SDS011;12713;51.624;4.924;2023-02-16T01:30:50;86.03;;;49.72;;
24547;SDS011;12713;51.624;4.924;2023-02-16T01:33:17;80.72;;;49.42;;
24547;SDS011;12713;51.624;4.924;2023-02-16T01:35:43;86.30;;;51.83;;
24547;SDS011;12713;51.624;4.924;2023-02-16T01:38:19;78.20;;;48.65;;
24547;SDS011;12713;51.624;4.924;2023-02-16T01:43:34;84.53;;;49.17;;
24547;SDS011;12713;51.624;4.924;2023-02-16T01:46:28;85.18;;;50.25;;
24547;SDS011;12713;51.624;4.924;2023-02-16T01:48:49;84.05;;;49.72;;
24547;SDS011;12713;51.624;4.924;2023-02-16T01:53:43;87.40;;;50.20;;
24547;SDS011;12713;51.624;4.924;2023-02-16T01:56:23;85.85;;;50.38;;
24547;SDS011;12713;51.624;4.924;2023-02-16T01:58:54;87.95;;;50.67;;
24547;SDS011;12713;51.624;4.924;2023-02-16T02:01:41;92.53;;;53.22;;
24547;SDS011;12713;51.624;4.924;2023-02-16T02:04:19;87.88;;;50.33;;
24547;SDS011;12713;51.624;4.924;2023-02-16T02:07:04;83.47;;;49.78;;
24547;SDS011;12713;51.624;4.924;2023-02-16T02:09:34;87.40;;;51.03;;
24547;SDS011;12713;51.624;4.924;2023-02-16T02:12:04;87.65;;;50.60;;
24547;SDS011;12713;51.624;4.924;2023-02-16T02:14:34;87.72;;;51.95;;
24547;SDS011;12713;51.624;4.924;2023-02-16T02:17:06;83.07;;;50.85;;
24547;SDS011;12713;51.624;4.924;2023-02-16T02:25:21;81.10;;;49.53;;
24547;SDS011;12713;51.624;4.924;2023-02-16T02:27:52;88.70;;;52.05;;
24547;SDS011;12713;51.624;4.924;2023-02-16T02:46:03;91.22;;;52.50;;
24547;SDS011;12713;51.624;4.924;2023-02-16T02:48:30;85.00;;;51.22;;
24547;SDS011;12713;51.624;4.924;2023-02-16T02:51:00;85.82;;;49.28;;
24547;SDS011;12713;51.624;4.924;2023-02-16T02:53:51;94.35;;;51.97;;
24547;SDS011;12713;51.624;4.924;2023-02-16T02:56:38;94.55;;;53.95;;
24547;SDS011;12713;51.624;4.924;2023-02-16T02:59:23;91.82;;;52.63;;
24547;SDS011;12713;51.624;4.924;2023-02-16T03:02:09;88.75;;;53.33;;
24547;SDS011;12713;51.624;4.924;2023-02-16T03:04:35;93.50;;;53.25;;
24547;SDS011;12713;51.624;4.924;2023-02-16T03:07:01;93.50;;;53.15;;
24547;SDS011;12713;51.624;4.924;2023-02-16T03:09:29;86.78;;;51.97;;
24547;SDS011;12713;51.624;4.924;2023-02-16T03:11:55;95.30;;;53.75;;
24547;SDS011;12713;51.624;4.924;2023-02-16T03:14:41;91.07;;;52.78;;
24547;SDS011;12713;51.624;4.924;2023-02-16T03:17:15;95.95;;;53.75;;
24547;SDS011;12713;51.624;4.924;2023-02-16T03:20:00;87.38;;;52.53;;
24547;SDS011;12713;51.624;4.924;2023-02-16T03:22:46;91.32;;;53.53;;
24547;SDS011;12713;51.624;4.924;2023-02-16T03:25:33;96.43;;;54.95;;
24547;SDS011;12713;51.624;4.924;2023-02-16T03:28:18;91.80;;;53.63;;
24547;SDS011;12713;51.624;4.924;2023-02-16T03:31:05;91.72;;;53.85;;
24547;SDS011;12713;51.624;4.924;2023-02-16T03:33:31;92.35;;;55.20;;
24547;SDS011;12713;51.624;4.924;2023-02-16T03:35:57;91.53;;;53.65;;
24547;SDS011;12713;51.624;4.924;2023-02-16T03:38:24;93.93;;;54.25;;
24547;SDS011;12713;51.624;4.924;2023-02-16T03:40:51;93.57;;;54.75;;
24547;SDS011;12713;51.624;4.924;2023-02-16T03:43:17;98.38;;;56.25;;
24547;SDS011;12713;51.624;4.924;2023-02-16T03:45:43;92.35;;;55.83;;
24547;SDS011;12713;51.624;4.924;2023-02-16T03:48:09;90.75;;;53.55;;
24547;SDS011;12713;51.624;4.924;2023-02-16T03:50:36;90.45;;;52.33;;
24547;SDS011;12713;51.624;4.924;2023-02-16T03:53:02;99.40;;;57.05;;
24547;SDS011;12713;51.624;4.924;2023-02-16T03:55:38;97.00;;;53.88;;
24547;SDS011;12713;51.624;4.924;2023-02-16T03:58:05;91.50;;;53.00;;
24547;SDS011;12713;51.624;4.924;2023-02-16T04:00:32;93.05;;;54.83;;
24547;SDS011;12713;51.624;4.924;2023-02-16T04:02:58;88.63;;;53.50;;
24547;SDS011;12713;51.624;4.924;2023-02-16T04:05:25;92.80;;;55.25;;
24547;SDS011;12713;51.624;4.924;2023-02-16T04:07:51;92.70;;;55.17;;
24547;SDS011;12713;51.624;4.924;2023-02-16T04:10:17;96.03;;;54.28;;
24547;SDS011;12713;51.624;4.924;2023-02-16T04:12:43;97.05;;;55.78;;
24547;SDS011;12713;51.624;4.924;2023-02-16T04:15:11;96.00;;;56.17;;
24547;SDS011;12713;51.624;4.924;2023-02-16T04:17:37;87.40;;;52.97;;
24547;SDS011;12713;51.624;4.924;2023-02-16T04:20:03;91.65;;;54.67;;
24547;SDS011;12713;51.624;4.924;2023-02-16T04:22:30;97.15;;;55.83;;
24547;SDS011;12713;51.624;4.924;2023-02-16T04:24:56;93.63;;;54.55;;
24547;SDS011;12713;51.624;4.924;2023-02-16T04:27:22;95.60;;;54.35;;
24547;SDS011;12713;51.624;4.924;2023-02-16T04:29:48;92.32;;;54.22;;
24547;SDS011;12713;51.624;4.924;2023-02-16T04:32:15;97.90;;;55.53;;
24547;SDS011;12713;51.624;4.924;2023-02-16T04:34:41;93.50;;;55.40;;
24547;SDS011;12713;51.624;4.924;2023-02-16T04:37:07;92.90;;;55.97;;
24547;SDS011;12713;51.624;4.924;2023-02-16T04:39:33;96.80;;;57.97;;
24547;SDS011;12713;51.624;4.924;2023-02-16T04:41:59;95.97;;;56.17;;
24547;SDS011;12713;51.624;4.924;2023-02-16T04:44:25;88.50;;;53.83;;
24547;SDS011;12713;51.624;4.924;2023-02-16T04:46:51;89.20;;;52.80;;
24547;SDS011;12713;51.624;4.924;2023-02-16T04:49:17;90.53;;;53.03;;
24547;SDS011;12713;51.624;4.924;2023-02-16T04:51:43;88.80;;;54.13;;
24547;SDS011;12713;51.624;4.924;2023-02-16T04:54:09;89.40;;;54.53;;
24547;SDS011;12713;51.624;4.924;2023-02-16T04:56:35;90.65;;;53.28;;
24547;SDS011;12713;51.624;4.924;2023-02-16T04:59:02;90.22;;;54.25;;
24547;SDS011;12713;51.624;4.924;2023-02-16T05:01:28;98.90;;;56.97;;
24547;SDS011;12713;51.624;4.924;2023-02-16T05:03:54;88.88;;;54.78;;
24547;SDS011;12713;51.624;4.924;2023-02-16T05:06:20;91.63;;;54.42;;
24547;SDS011;12713;51.624;4.924;2023-02-16T05:08:46;90.32;;;54.25;;
24547;SDS011;12713;51.624;4.924;2023-02-16T05:11:12;93.80;;;54.15;;
24547;SDS011;12713;51.624;4.924;2023-02-16T05:13:57;94.32;;;55.50;;
24547;SDS011;12713;51.624;4.924;2023-02-16T05:16:43;91.75;;;54.47;;
24547;SDS011;12713;51.624;4.924;2023-02-16T05:19:09;91.15;;;54.58;;
24547;SDS011;12713;51.624;4.924;2023-02-16T05:21:35;89.13;;;54.08;;
24547;SDS011;12713;51.624;4.924;2023-02-16T05:24:04;91.22;;;53.45;;
24547;SDS011;12713;51.624;4.924;2023-02-16T05:26:30;88.82;;;52.38;;
24547;SDS011;12713;51.624;4.924;2023-02-16T05:28:56;88.82;;;52.75;;
24547;SDS011;12713;51.624;4.924;2023-02-16T05:31:23;94.57;;;54.65;;
24547;SDS011;12713;51.624;4.924;2023-02-16T05:33:49;91.63;;;53.13;;
24547;SDS011;12713;51.624;4.924;2023-02-16T05:36:15;89.25;;;52.67;;
24547;SDS011;12713;51.624;4.924;2023-02-16T05:38:41;91.13;;;53.40;;
24547;SDS011;12713;51.624;4.924;2023-02-16T05:41:07;85.38;;;53.78;;
24547;SDS011;12713;51.624;4.924;2023-02-16T05:43:33;93.20;;;54.63;;
24547;SDS011;12713;51.624;4.924;2023-02-16T05:45:59;88.85;;;53.55;;
24547;SDS011;12713;51.624;4.924;2023-02-16T05:48:31;92.35;;;54.65;;
24547;SDS011;12713;51.624;4.924;2023-02-16T05:50:57;88.10;;;53.63;;
24547;SDS011;12713;51.624;4.924;2023-02-16T05:53:23;93.45;;;54.90;;
24547;SDS011;12713;51.624;4.924;2023-02-16T05:55:49;88.97;;;56.10;;
24547;SDS011;12713;51.624;4.924;2023-02-16T05:58:15;93.68;;;54.45;;
24547;SDS011;12713;51.624;4.924;2023-02-16T06:00:41;93.47;;;54.92;;
24547;SDS011;12713;51.624;4.924;2023-02-16T06:03:07;88.03;;;53.10;;
24547;SDS011;12713;51.624;4.924;2023-02-16T06:05:33;84.10;;;50.97;;
24547;SDS011;12713;51.624;4.924;2023-02-16T06:07:59;87.22;;;53.10;;
24547;SDS011;12713;51.624;4.924;2023-02-16T06:10:25;84.75;;;51.03;;
24547;SDS011;12713;51.624;4.924;2023-02-16T06:12:51;86.60;;;52.22;;
24547;SDS011;12713;51.624;4.924;2023-02-16T06:15:17;88.20;;;51.33;;
24547;SDS011;12713;51.624;4.924;2023-02-16T06:17:43;89.90;;;51.05;;
24547;SDS011;12713;51.624;4.924;2023-02-16T06:20:09;90.50;;;52.95;;
24547;SDS011;12713;51.624;4.924;2023-02-16T06:22:35;84.30;;;51.28;;
24547;SDS011;12713;51.624;4.924;2023-02-16T06:25:02;92.63;;;53.08;;
24547;SDS011;12713;51.624;4.924;2023-02-16T06:27:28;86.30;;;51.78;;
24547;SDS011;12713;51.624;4.924;2023-02-16T06:29:54;90.68;;;53.50;;
24547;SDS011;12713;51.624;4.924;2023-02-16T06:32:20;86.65;;;52.15;;
24547;SDS011;12713;51.624;4.924;2023-02-16T06:34:46;82.03;;;50.88;;
24547;SDS011;12713;51.624;4.924;2023-02-16T06:37:12;87.03;;;49.55;;
24547;SDS011;12713;51.624;4.924;2023-02-16T06:39:38;84.28;;;50.92;;
24547;SDS011;12713;51.624;4.924;2023-02-16T06:42:04;86.85;;;52.17;;
24547;SDS011;12713;51.624;4.924;2023-02-16T06:44:30;86.30;;;50.40;;
24547;SDS011;12713;51.624;4.924;2023-02-16T06:46:56;82.60;;;50.90;;
24547;SDS011;12713;51.624;4.924;2023-02-16T06:49:22;88.78;;;51.33;;
24547;SDS011;12713;51.624;4.924;2023-02-16T06:51:48;83.05;;;50.70;;
24547;SDS011;12713;51.624;4.924;2023-02-16T06:54:14;84.07;;;51.13;;
24547;SDS011;12713;51.624;4.924;2023-02-16T06:56:41;83.25;;;50.70;;
24547;SDS011;12713;51.624;4.924;2023-02-16T06:59:07;83.05;;;51.20;;
24547;SDS011;12713;51.624;4.924;2023-02-16T07:01:33;85.70;;;50.70;;
24547;SDS011;12713;51.624;4.924;2023-02-16T07:03:59;86.05;;;51.42;;
24547;SDS011;12713;51.624;4.924;2023-02-16T07:06:26;87.80;;;50.80;;
24547;SDS011;12713;51.624;4.924;2023-02-16T07:08:55;83.97;;;49.60;;
24547;SDS011;12713;51.624;4.924;2023-02-16T07:11:21;86.72;;;49.58;;
24547;SDS011;12713;51.624;4.924;2023-02-16T07:13:47;84.13;;;50.47;;
24547;SDS011;12713;51.624;4.924;2023-02-16T07:16:14;81.35;;;50.78;;
24547;SDS011;12713;51.624;4.924;2023-02-16T07:18:40;79.53;;;48.22;;
24547;SDS011;12713;51.624;4.924;2023-02-16T07:21:06;84.38;;;50.33;;
24547;SDS011;12713;51.624;4.924;2023-02-16T07:23:33;76.22;;;46.17;;
24547;SDS011;12713;51.624;4.924;2023-02-16T07:25:59;87.70;;;50.60;;
24547;SDS011;12713;51.624;4.924;2023-02-16T07:28:26;80.40;;;48.42;;
24547;SDS011;12713;51.624;4.924;2023-02-16T07:30:52;79.28;;;48.75;;
24547;SDS011;12713;51.624;4.924;2023-02-16T07:33:18;74.78;;;47.40;;
24547;SDS011;12713;51.624;4.924;2023-02-16T07:35:45;86.60;;;48.38;;
24547;SDS011;12713;51.624;4.924;2023-02-16T07:38:11;84.18;;;49.25;;
24547;SDS011;12713;51.624;4.924;2023-02-16T07:40:37;82.35;;;47.33;;
24547;SDS011;12713;51.624;4.924;2023-02-16T07:43:04;84.28;;;47.70;;
24547;SDS011;12713;51.624;4.924;2023-02-16T07:45:31;82.20;;;47.17;;
24547;SDS011;12713;51.624;4.924;2023-02-16T07:47:58;75.28;;;45.15;;
24547;SDS011;12713;51.624;4.924;2023-02-16T07:50:24;80.20;;;47.05;;
24547;SDS011;12713;51.624;4.924;2023-02-16T07:52:50;84.93;;;47.13;;
24547;SDS011;12713;51.624;4.924;2023-02-16T07:55:16;76.47;;;47.85;;
24547;SDS011;12713;51.624;4.924;2023-02-16T07:57:42;80.78;;;46.63;;
24547;SDS011;12713;51.624;4.924;2023-02-16T08:00:09;79.13;;;47.33;;
24547;SDS011;12713;51.624;4.924;2023-02-16T08:02:35;79.57;;;47.00;;
24547;SDS011;12713;51.624;4.924;2023-02-16T08:05:01;75.43;;;46.95;;
24547;SDS011;12713;51.624;4.924;2023-02-16T08:07:27;73.72;;;45.97;;
24547;SDS011;12713;51.624;4.924;2023-02-16T08:09:53;84.30;;;47.90;;
24547;SDS011;12713;51.624;4.924;2023-02-16T08:12:19;80.78;;;46.85;;
24547;SDS011;12713;51.624;4.924;2023-02-16T08:14:45;76.40;;;44.65;;
24547;SDS011;12713;51.624;4.924;2023-02-16T08:17:12;74.80;;;45.90;;
24547;SDS011;12713;51.624;4.924;2023-02-16T08:19:38;74.22;;;46.67;;
24547;SDS011;12713;51.624;4.924;2023-02-16T08:22:04;73.18;;;45.92;;
24547;SDS011;12713;51.624;4.924;2023-02-16T08:24:31;82.68;;;46.35;;
24547;SDS011;12713;51.624;4.924;2023-02-16T08:27:02;75.70;;;47.20;;
24547;SDS011;12713;51.624;4.924;2023-02-16T08:29:28;76.22;;;47.70;;
24547;SDS011;12713;51.624;4.924;2023-02-16T08:31:54;72.78;;;45.20;;
24547;SDS011;12713;51.624;4.924;2023-02-16T08:34:21;75.80;;;45.30;;
24547;SDS011;12713;51.624;4.924;2023-02-16T08:36:50;74.22;;;44.00;;
24547;SDS011;12713;51.624;4.924;2023-02-16T08:39:18;70.13;;;44.38;;
24547;SDS011;12713;51.624;4.924;2023-02-16T08:41:45;76.63;;;44.38;;
24547;SDS011;12713;51.624;4.924;2023-02-16T08:44:12;74.68;;;45.63;;
24547;SDS011;12713;51.624;4.924;2023-02-16T08:46:39;74.07;;;44.78;;
24547;SDS011;12713;51.624;4.924;2023-02-16T08:49:06;80.32;;;47.90;;
24547;SDS011;12713;51.624;4.924;2023-02-16T08:51:34;72.05;;;45.10;;
24547;SDS011;12713;51.624;4.924;2023-02-16T08:54:02;71.70;;;44.55;;
24547;SDS011;12713;51.624;4.924;2023-02-16T08:56:29;77.28;;;45.45;;
24547;SDS011;12713;51.624;4.924;2023-02-16T08:58:56;74.03;;;45.20;;
24547;SDS011;12713;51.624;4.924;2023-02-16T09:01:22;77.85;;;45.72;;
24547;SDS011;12713;51.624;4.924;2023-02-16T09:03:49;73.20;;;45.42;;
24547;SDS011;12713;51.624;4.924;2023-02-16T09:06:16;78.15;;;46.90;;
24547;SDS011;12713;51.624;4.924;2023-02-16T09:08:44;78.70;;;48.55;;
24547;SDS011;12713;51.624;4.924;2023-02-16T09:11:11;79.22;;;46.95;;
24547;SDS011;12713;51.624;4.924;2023-02-16T09:13:38;76.00;;;46.75;;
24547;SDS011;12713;51.624;4.924;2023-02-16T09:16:05;78.72;;;48.10;;
24547;SDS011;12713;51.624;4.924;2023-02-16T09:18:32;83.43;;;49.13;;
24547;SDS011;12713;51.624;4.924;2023-02-16T09:21:02;83.57;;;48.53;;
24547;SDS011;12713;51.624;4.924;2023-02-16T09:23:28;77.10;;;48.13;;
24547;SDS011;12713;51.624;4.924;2023-02-16T09:25:54;78.60;;;48.97;;
24547;SDS011;12713;51.624;4.924;2023-02-16T09:28:24;81.13;;;50.25;;
24547;SDS011;12713;51.624;4.924;2023-02-16T09:30:50;79.10;;;47.72;;
24547;SDS011;12713;51.624;4.924;2023-02-16T09:33:18;78.60;;;49.38;;
24547;SDS011;12713;51.624;4.924;2023-02-16T09:35:45;87.97;;;51.17;;
24547;SDS011;12713;51.624;4.924;2023-02-16T09:38:11;80.78;;;50.97;;
24547;SDS011;12713;51.624;4.924;2023-02-16T09:40:41;81.93;;;50.92;;
24547;SDS011;12713;51.624;4.924;2023-02-16T09:43:07;79.35;;;50.50;;
24547;SDS011;12713;51.624;4.924;2023-02-16T09:45:38;85.75;;;51.50;;
24547;SDS011;12713;51.624;4.924;2023-02-16T09:48:08;87.03;;;51.40;;
24547;SDS011;12713;51.624;4.924;2023-02-16T09:50:36;86.13;;;50.45;;
24547;SDS011;12713;51.624;4.924;2023-02-16T09:53:07;82.55;;;50.65;;
24547;SDS011;12713;51.624;4.924;2023-02-16T09:58:15;84.60;;;52.60;;
24547;SDS011;12713;51.624;4.924;2023-02-16T10:00:43;84.43;;;53.08;;
24547;SDS011;12713;51.624;4.924;2023-02-16T10:03:30;83.97;;;51.60;;
24547;SDS011;12713;51.624;4.924;2023-02-16T10:09:02;89.55;;;52.85;;
24547;SDS011;12713;51.624;4.924;2023-02-16T10:11:32;84.88;;;53.83;;
24547;SDS011;12713;51.624;4.924;2023-02-16T10:20:00;88.15;;;53.75;;
24547;SDS011;12713;51.624;4.924;2023-02-16T10:22:36;86.47;;;53.00;;
24547;SDS011;12713;51.624;4.924;2023-02-16T10:25:07;88.30;;;53.97;;
24547;SDS011;12713;51.624;4.924;2023-02-16T10:27:42;85.72;;;53.08;;
24547;SDS011;12713;51.624;4.924;2023-02-16T10:32:37;86.53;;;54.00;;
24547;SDS011;12713;51.624;4.924;2023-02-16T10:42:32;86.85;;;54.47;;
24547;SDS011;12713;51.624;4.924;2023-02-16T10:45:01;86.70;;;53.03;;
24547;SDS011;12713;51.624;4.924;2023-02-16T10:47:39;85.13;;;52.38;;
24547;SDS011;12713;51.624;4.924;2023-02-16T10:50:09;86.40;;;54.15;;
24547;SDS011;12713;51.624;4.924;2023-02-16T10:52:40;87.60;;;52.70;;
24547;SDS011;12713;51.624;4.924;2023-02-16T10:55:06;89.97;;;54.38;;
24547;SDS011;12713;51.624;4.924;2023-02-16T10:57:33;84.72;;;52.63;;
24547;SDS011;12713;51.624;4.924;2023-02-16T11:00:04;87.82;;;52.67;;
24547;SDS011;12713;51.624;4.924;2023-02-16T11:02:41;82.15;;;51.58;;
24547;SDS011;12713;51.624;4.924;2023-02-16T11:05:27;82.43;;;50.58;;
24547;SDS011;12713;51.624;4.924;2023-02-16T11:07:54;84.82;;;49.63;;
24547;SDS011;12713;51.624;4.924;2023-02-16T11:10:25;85.10;;;50.67;;
24547;SDS011;12713;51.624;4.924;2023-02-16T11:12:58;84.75;;;51.42;;
24547;SDS011;12713;51.624;4.924;2023-02-16T11:15:24;79.80;;;49.95;;
24547;SDS011;12713;51.624;4.924;2023-02-16T11:20:28;77.93;;;48.30;;
24547;SDS011;12713;51.624;4.924;2023-02-16T11:23:12;71.72;;;48.25;;
24547;SDS011;12713;51.624;4.924;2023-02-16T11:28:05;79.75;;;50.20;;
24547;SDS011;12713;51.624;4.924;2023-02-16T11:30:35;73.35;;;47.13;;
24547;SDS011;12713;51.624;4.924;2023-02-16T11:33:02;77.78;;;49.13;;
24547;SDS011;12713;51.624;4.924;2023-02-16T11:35:29;78.90;;;49.38;;
24547;SDS011;12713;51.624;4.924;2023-02-16T11:37:57;77.53;;;49.05;;
24547;SDS011;12713;51.624;4.924;2023-02-16T11:40:25;78.35;;;48.03;;
24547;SDS011;12713;51.624;4.924;2023-02-16T11:42:55;74.38;;;46.40;;
24547;SDS011;12713;51.624;4.924;2023-02-16T11:47:51;70.40;;;45.22;;
24547;SDS011;12713;51.624;4.924;2023-02-16T11:52:48;67.57;;;44.08;;
24547;SDS011;12713;51.624;4.924;2023-02-16T11:55:28;64.68;;;43.17;;
24547;SDS011;12713;51.624;4.924;2023-02-16T12:01:25;62.00;;;42.28;;
24547;SDS011;12713;51.624;4.924;2023-02-16T12:13:27;65.00;;;42.85;;
24547;SDS011;12713;51.624;4.924;2023-02-16T12:18:54;56.75;;;37.42;;
24547;SDS011;12713;51.624;4.924;2023-02-16T12:21:28;58.45;;;36.95;;
24547;SDS011;12713;51.624;4.924;2023-02-16T12:26:41;54.85;;;35.45;;
24547;SDS011;12713;51.624;4.924;2023-02-16T12:34:27;46.92;;;32.55;;
24547;SDS011;12713;51.624;4.924;2023-02-16T12:42:19;42.30;;;27.25;;
24547;SDS011;12713;51.624;4.924;2023-02-16T12:45:25;38.80;;;27.40;;
24547;SDS011;12713;51.624;4.924;2023-02-16T12:47:32;40.97;;;26.65;;
24547;SDS011;12713;51.624;4.924;2023-02-16T12:55:02;40.83;;;28.30;;
24547;SDS011;12713;51.624;4.924;2023-02-16T12:57:31;42.40;;;28.17;;
24547;SDS011;12713;51.624;4.924;2023-02-16T13:02:49;32.97;;;24.65;;
24547;SDS011;12713;51.624;4.924;2023-02-16T13:05:24;34.20;;;24.30;;
24547;SDS011;12713;51.624;4.924;2023-02-16T13:07:54;35.10;;;23.52;;
24547;SDS011;12713;51.624;4.924;2023-02-16T13:10:47;32.80;;;21.85;;
24547;SDS011;12713;51.624;4.924;2023-02-16T13:13:16;34.60;;;22.42;;
24547;SDS011;12713;51.624;4.924;2023-02-16T13:15:50;41.97;;;24.48;;
24547;SDS011;12713;51.624;4.924;2023-02-16T13:18:21;38.17;;;24.17;;
24547;SDS011;12713;51.624;4.924;2023-02-16T13:20:50;33.05;;;23.42;;
24547;SDS011;12713;51.624;4.924;2023-02-16T13:23:22;37.42;;;24.23;;
24547;SDS011;12713;51.624;4.924;2023-02-16T13:31:05;38.42;;;24.73;;
24547;SDS011;12713;51.624;4.924;2023-02-16T13:33:59;39.47;;;25.02;;
24547;SDS011;12713;51.624;4.924;2023-02-16T13:39:15;38.10;;;24.90;;
24547;SDS011;12713;51.624;4.924;2023-02-16T13:41:50;38.70;;;24.13;;
24547;SDS011;12713;51.624;4.924;2023-02-16T13:44:20;34.38;;;23.60;;
24547;SDS011;12713;51.624;4.924;2023-02-16T13:46:48;37.78;;;22.52;;
24547;SDS011;12713;51.624;4.924;2023-02-16T13:52:04;35.05;;;23.27;;
24547;SDS011;12713;51.624;4.924;2023-02-16T13:54:33;33.67;;;22.02;;
24547;SDS011;12713;51.624;4.924;2023-02-16T13:57:00;32.58;;;22.15;;
24547;SDS011;12713;51.624;4.924;2023-02-16T14:01:59;35.30;;;21.77;;
24547;SDS011;12713;51.624;4.924;2023-02-16T14:17:21;34.92;;;24.60;;
24547;SDS011;12713;51.624;4.924;2023-02-16T14:19:52;35.67;;;23.63;;
24547;SDS011;12713;51.624;4.924;2023-02-16T14:22:20;36.05;;;22.33;;
24547;SDS011;12713;51.624;4.924;2023-02-16T14:24:52;37.45;;;23.58;;
24547;SDS011;12713;51.624;4.924;2023-02-16T14:30:03;39.60;;;24.25;;
24547;SDS011;12713;51.624;4.924;2023-02-16T14:32:31;35.20;;;23.63;;
24547;SDS011;12713;51.624;4.924;2023-02-16T14:37:30;36.42;;;24.33;;
24547;SDS011;12713;51.624;4.924;2023-02-16T14:40:03;32.55;;;23.85;;
24547;SDS011;12713;51.624;4.924;2023-02-16T14:42:30;34.17;;;22.38;;
24547;SDS011;12713;51.624;4.924;2023-02-16T14:50:00;35.63;;;23.10;;
24547;SDS011;12713;51.624;4.924;2023-02-16T14:52:40;35.03;;;22.95;;
24547;SDS011;12713;51.624;4.924;2023-02-16T15:03:18;33.30;;;22.27;;
24547;SDS011;12713;51.624;4.924;2023-02-16T15:05:48;34.92;;;22.52;;
24547;SDS011;12713;51.624;4.924;2023-02-16T15:08:18;35.08;;;23.48;;
24547;SDS011;12713;51.624;4.924;2023-02-16T15:10:46;33.00;;;21.80;;
24547;SDS011;12713;51.624;4.924;2023-02-16T15:13:19;36.85;;;23.23;;
24547;SDS011;12713;51.624;4.924;2023-02-16T15:15:46;33.90;;;21.40;;
24547;SDS011;12713;51.624;4.924;2023-02-16T15:18:24;30.15;;;21.05;;
24547;SDS011;12713;51.624;4.924;2023-02-16T15:20:52;34.35;;;21.63;;
24547;SDS011;12713;51.624;4.924;2023-02-16T15:23:23;30.15;;;20.25;;
24547;SDS011;12713;51.624;4.924;2023-02-16T15:25:52;35.20;;;22.13;;
24547;SDS011;12713;51.624;4.924;2023-02-16T15:28:19;32.38;;;22.38;;
24547;SDS011;12713;51.624;4.924;2023-02-16T15:30:56;33.13;;;22.20;;
24547;SDS011;12713;51.624;4.924;2023-02-16T15:35:52;35.95;;;24.38;;
24547;SDS011;12713;51.624;4.924;2023-02-16T15:38:23;36.20;;;23.17;;
24547;SDS011;12713;51.624;4.924;2023-02-16T15:40:57;37.80;;;26.13;;
24547;SDS011;12713;51.624;4.924;2023-02-16T15:45:56;41.53;;;26.60;;
24547;SDS011;12713;51.624;4.924;2023-02-16T15:48:27;46.55;;;27.77;;
24547;SDS011;12713;51.624;4.924;2023-02-16T15:50:59;41.65;;;28.63;;
24547;SDS011;12713;51.624;4.924;2023-02-16T15:53:36;40.45;;;27.35;;
24547;SDS011;12713;51.624;4.924;2023-02-16T15:56:04;43.58;;;29.65;;
24547;SDS011;12713;51.624;4.924;2023-02-16T16:01:02;46.17;;;28.83;;
24547;SDS011;12713;51.624;4.924;2023-02-16T16:03:30;47.33;;;29.73;;
24547;SDS011;12713;51.624;4.924;2023-02-16T16:05:57;46.05;;;28.23;;
24547;SDS011;12713;51.624;4.924;2023-02-16T16:08:25;45.65;;;28.52;;
24547;SDS011;12713;51.624;4.924;2023-02-16T16:10:54;44.90;;;30.27;;
24547;SDS011;12713;51.624;4.924;2023-02-16T16:13:25;45.85;;;30.88;;
24547;SDS011;12713;51.624;4.924;2023-02-16T16:15:53;47.00;;;30.33;;
24547;SDS011;12713;51.624;4.924;2023-02-16T16:21:01;45.92;;;31.27;;
24547;SDS011;12713;51.624;4.924;2023-02-16T16:23:28;47.03;;;31.08;;
24547;SDS011;12713;51.624;4.924;2023-02-16T16:25:54;50.38;;;30.85;;
24547;SDS011;12713;51.624;4.924;2023-02-16T16:31:12;53.60;;;32.30;;
24547;SDS011;12713;51.624;4.924;2023-02-16T16:33:52;57.15;;;36.30;;
24547;SDS011;12713;51.624;4.924;2023-02-16T16:39:10;54.50;;;34.65;;
24547;SDS011;12713;51.624;4.924;2023-02-16T16:41:44;52.80;;;33.40;;
24547;SDS011;12713;51.624;4.924;2023-02-16T16:46:55;49.35;;;33.88;;
24547;SDS011;12713;51.624;4.924;2023-02-16T16:49:24;48.55;;;32.90;;
24547;SDS011;12713;51.624;4.924;2023-02-16T16:51:53;59.27;;;34.03;;
24547;SDS011;12713;51.624;4.924;2023-02-16T16:54:34;52.13;;;34.30;;
24547;SDS011;12713;51.624;4.924;2023-02-16T16:57:11;55.15;;;33.13;;
24547;SDS011;12713;51.624;4.924;2023-02-16T16:59:39;54.58;;;33.50;;
24547;SDS011;12713;51.624;4.924;2023-02-16T17:02:08;50.85;;;33.75;;
24547;SDS011;12713;51.624;4.924;2023-02-16T17:04:34;50.08;;;34.55;;
24547;SDS011;12713;51.624;4.924;2023-02-16T17:07:00;61.60;;;36.28;;
24547;SDS011;12713;51.624;4.924;2023-02-16T17:09:26;54.67;;;35.25;;
24547;SDS011;12713;51.624;4.924;2023-02-16T17:11:52;51.88;;;34.00;;
24547;SDS011;12713;51.624;4.924;2023-02-16T17:14:18;51.40;;;33.50;;